Time;durP1;ratioP1;P1;durP2;ratioP2;P2;SDS_P1;SDS_P2;PMS_P1;PMS_P2;Temp;Humidity;BMP_temperature;BMP_pressure;BME280_temperature;BME280_humidity;BME280_pressure;Samples;Min_cycle;Max_cycle;Signal;HPM_P1;HPM_P2
2022/03/27 00:01:04;;;;;;;7.93;3.65;;;;;;;;;;7388561;19;20014;-77
2022/03/27 00:03:29;;;;;;;9.35;3.67;;;;;;;;;;7390658;19;20010;-77
2022/03/27 00:05:54;;;;;;;8.55;3.53;;;;;;;;;;7390236;19;20006;-76
2022/03/27 00:08:19;;;;;;;6.28;3.35;;;;;;;;;;7388117;19;20332;-77
2022/03/27 00:13:29;;;;;;;7.95;2.80;;;;;;;;;;7391138;19;20496;-77
2022/03/27 00:15:54;;;;;;;5.07;2.70;;;;;;;;;;7389851;19;20018;-77
2022/03/27 00:18:19;;;;;;;8.32;3.83;;;;;;;;;;7388872;19;20015;-77
2022/03/27 00:20:45;;;;;;;7.25;3.15;;;;;;;;;;7390778;19;20022;-77
2022/03/27 00:23:10;;;;;;;8.75;3.30;;;;;;;;;;7389813;19;20007;-77
2022/03/27 00:25:36;;;;;;;6.00;2.47;;;;;;;;;;7390081;19;20316;-77
2022/03/27 00:28:02;;;;;;;6.55;2.80;;;;;;;;;;7390643;19;20044;-77
2022/03/27 00:30:28;;;;;;;5.07;2.65;;;;;;;;;;7391155;19;20049;-76
2022/03/27 00:32:53;;;;;;;5.63;2.90;;;;;;;;;;7392254;19;20006;-77
2022/03/27 00:35:18;;;;;;;7.47;2.95;;;;;;;;;;7392595;19;20014;-77
2022/03/27 00:37:45;;;;;;;6.55;2.88;;;;;;;;;;7391776;19;20017;-77
2022/03/27 00:40:13;;;;;;;10.35;2.80;;;;;;;;;;7389588;19;20375;-76
2022/03/27 00:42:39;;;;;;;4.80;2.42;;;;;;;;;;7392975;19;20006;-77
2022/03/27 00:45:04;;;;;;;6.47;2.70;;;;;;;;;;7392220;19;20014;-76
2022/03/27 00:47:30;;;;;;;6.78;3.72;;;;;;;;;;7390395;19;20039;-77
2022/03/27 00:49:55;;;;;;;5.00;2.70;;;;;;;;;;7392290;19;20014;-76
2022/03/27 00:52:20;;;;;;;6.43;3.17;;;;;;;;;;7387953;19;20026;-77
2022/03/27 00:54:45;;;;;;;6.80;3.55;;;;;;;;;;7391150;19;20006;-77
2022/03/27 00:57:11;;;;;;;8.95;3.80;;;;;;;;;;7393662;19;20025;-77
2022/03/27 00:59:36;;;;;;;9.63;3.80;;;;;;;;;;7393796;19;20054;-77
2022/03/27 01:02:02;;;;;;;11.35;4.05;;;;;;;;;;7396023;19;20019;-77
2022/03/27 01:04:28;;;;;;;7.22;3.55;;;;;;;;;;7396351;19;20396;-77
2022/03/27 01:06:54;;;;;;;6.53;3.13;;;;;;;;;;7395279;19;20008;-76
2022/03/27 01:09:37;;;;;;;8.15;3.28;;;;;;;;;;7385492;19;20078;-76
2022/03/27 01:12:26;;;;;;;7.50;3.20;;;;;;;;;;7389602;19;20009;-77
2022/03/27 01:14:53;;;;;;;7.50;2.70;;;;;;;;;;7386979;19;20058;-77
2022/03/27 01:17:27;;;;;;;6.07;2.78;;;;;;;;;;7389032;19;20011;-78
2022/03/27 01:19:55;;;;;;;7.18;2.88;;;;;;;;;;7394829;19;20022;-77
2022/03/27 01:22:21;;;;;;;6.07;2.65;;;;;;;;;;7396952;19;20010;-77
2022/03/27 01:24:48;;;;;;;5.57;2.83;;;;;;;;;;7396696;19;20031;-77
2022/03/27 01:27:13;;;;;;;6.90;2.78;;;;;;;;;;7395122;19;20010;-78
2022/03/27 01:29:39;;;;;;;6.32;3.15;;;;;;;;;;7388536;19;20021;-76
2022/03/27 01:32:08;;;;;;;5.55;2.60;;;;;;;;;;7393609;19;20118;-77
2022/03/27 01:34:34;;;;;;;6.18;2.22;;;;;;;;;;7396357;19;20352;-76
2022/03/27 01:37:09;;;;;;;6.13;2.55;;;;;;;;;;7395922;19;19999;-77
2022/03/27 01:39:35;;;;;;;;;;;;;;;;;;7395059;19;20010;-76
2022/03/27 01:42:00;;;;;;;5.65;1.90;;;;;;;;;;7396639;19;20237;-77
2022/03/27 01:44:26;;;;;;;8.05;2.28;;;;;;;;;;7394915;19;20019;-77
2022/03/27 01:46:52;;;;;;;3.28;1.58;;;;;;;;;;7394125;19;20002;-76
2022/03/27 01:49:19;;;;;;;9.68;2.50;;;;;;;;;;7390351;19;20018;-76
2022/03/27 01:51:45;;;;;;;6.43;2.78;;;;;;;;;;7393106;19;20014;-78
2022/03/27 01:54:11;;;;;;;7.32;2.55;;;;;;;;;;7395783;19;20006;-77
2022/03/27 01:56:38;;;;;;;4.82;2.40;;;;;;;;;;7394455;19;20403;-78
2022/03/27 01:59:04;;;;;;;4.95;2.60;;;;;;;;;;7393069;19;20014;-77
2022/03/27 02:01:31;;;;;;;4.60;2.20;;;;;;;;;;7390266;19;20007;-77
2022/03/27 02:03:56;;;;;;;4.93;2.20;;;;;;;;;;7393849;19;20442;-78
2022/03/27 02:06:23;;;;;;;4.03;2.20;;;;;;;;;;7394380;19;19999;-77
2022/03/27 02:08:49;;;;;;;7.95;2.60;;;;;;;;;;7392153;19;20010;-78
2022/03/27 02:11:15;;;;;;;5.85;2.17;;;;;;;;;;7391623;19;20045;-78
2022/03/27 02:13:41;;;;;;;4.45;2.20;;;;;;;;;;7394960;19;20015;-77
2022/03/27 02:16:06;;;;;;;3.72;1.95;;;;;;;;;;7393746;19;20002;-77
2022/03/27 02:18:32;;;;;;;4.53;2.13;;;;;;;;;;7393010;19;20014;-78
2022/03/27 02:21:00;;;;;;;5.18;1.73;;;;;;;;;;7392935;19;20336;-77
2022/03/27 02:23:26;;;;;;;4.93;1.77;;;;;;;;;;7393370;19;20010;-78
2022/03/27 02:25:52;;;;;;;7.30;2.70;;;;;;;;;;7394118;19;20438;-77
2022/03/27 02:28:18;;;;;;;5.18;2.55;;;;;;;;;;7388884;19;20007;-77
2022/03/27 02:30:44;;;;;;;6.32;2.03;;;;;;;;;;7390500;19;20007;-78
2022/03/27 02:33:09;;;;;;;4.88;2.17;;;;;;;;;;7394006;19;20489;-78
2022/03/27 02:35:35;;;;;;;5.20;2.38;;;;;;;;;;7395034;19;20002;-77
2022/03/27 02:38:04;;;;;;;4.35;2.10;;;;;;;;;;7394459;19;20083;-78
2022/03/27 02:40:34;;;;;;;4.20;2.03;;;;;;;;;;7390917;19;20010;-78
2022/03/27 02:42:59;;;;;;;4.18;1.98;;;;;;;;;;7391757;19;20010;-77
2022/03/27 02:45:29;;;;;;;5.50;1.67;;;;;;;;;;7393869;19;20070;-77
2022/03/27 02:47:55;;;;;;;5.65;2.45;;;;;;;;;;7393348;19;20338;-78
2022/03/27 02:50:20;;;;;;;8.07;2.17;;;;;;;;;;7390373;19;20538;-78
2022/03/27 02:52:46;;;;;;;4.55;2.10;;;;;;;;;;7393481;19;20042;-78
2022/03/27 02:55:11;;;;;;;5.63;2.00;;;;;;;;;;7393059;19;20029;-77
2022/03/27 02:57:37;;;;;;;8.15;2.67;;;;;;;;;;7390420;19;20108;-77
2022/03/27 03:00:05;;;;;;;5.80;1.95;;;;;;;;;;7390335;19;20007;-78
2022/03/27 03:02:30;;;;;;;5.50;2.08;;;;;;;;;;7393935;19;20014;-78
2022/03/27 03:04:56;;;;;;;6.22;2.17;;;;;;;;;;7391234;19;20594;-77
2022/03/27 03:07:21;;;;;;;4.60;2.40;;;;;;;;;;7393715;19;20034;-78
2022/03/27 03:09:46;;;;;;;5.28;2.17;;;;;;;;;;7390736;19;20007;-77
2022/03/27 03:12:12;;;;;;;4.57;2.17;;;;;;;;;;7392329;19;20196;-78
2022/03/27 03:14:37;;;;;;;4.13;2.08;;;;;;;;;;7391814;19;20019;-79
2022/03/27 03:17:04;;;;;;;5.95;2.40;;;;;;;;;;7392444;19;20021;-78
2022/03/27 03:19:30;;;;;;;4.15;2.10;;;;;;;;;;7391141;19;20006;-78
2022/03/27 03:21:55;;;;;;;5.60;2.25;;;;;;;;;;7393834;19;20101;-78
2022/03/27 03:24:21;;;;;;;5.72;2.30;;;;;;;;;;7389167;19;20023;-76
2022/03/27 03:26:47;;;;;;;4.70;2.05;;;;;;;;;;7392097;19;20456;-76
2022/03/27 03:29:13;;;;;;;7.70;2.45;;;;;;;;;;7387350;19;20035;-76
2022/03/27 03:31:39;;;;;;;6.63;2.25;;;;;;;;;;7390974;19;20006;-76
2022/03/27 03:34:04;;;;;;;5.55;2.13;;;;;;;;;;7392022;19;20474;-75
2022/03/27 03:36:29;;;;;;;5.05;2.42;;;;;;;;;;7389820;19;20010;-76
2022/03/27 03:38:57;;;;;;;7.28;3.00;;;;;;;;;;7390481;19;20011;-75
2022/03/27 03:41:23;;;;;;;5.47;2.10;;;;;;;;;;7387544;19;20071;-76
2022/03/27 03:43:48;;;;;;;9.30;2.90;;;;;;;;;;7392300;19;20014;-76
2022/03/27 03:46:14;;;;;;;4.90;2.20;;;;;;;;;;7392195;19;20435;-76
2022/03/27 03:48:40;;;;;;;6.55;2.33;;;;;;;;;;7390654;19;20034;-76
2022/03/27 03:51:05;;;;;;;4.57;2.28;;;;;;;;;;7386823;19;20037;-76
2022/03/27 03:53:31;;;;;;;4.22;1.88;;;;;;;;;;7391402;19;20003;-75
2022/03/27 03:55:56;;;;;;;4.72;1.92;;;;;;;;;;7391222;19;20148;-76
2022/03/27 03:58:22;;;;;;;3.95;1.80;;;;;;;;;;7390819;19;20010;-75
2022/03/27 04:00:47;;;;;;;7.32;2.50;;;;;;;;;;7389527;19;20034;-75
2022/03/27 04:03:13;;;;;;;4.53;1.83;;;;;;;;;;7392030;19;20355;-76
2022/03/27 04:05:39;;;;;;;4.70;1.95;;;;;;;;;;7391158;19;20442;-76
2022/03/27 04:08:04;;;;;;;4.60;1.90;;;;;;;;;;7389629;19;20006;-75
2022/03/27 04:10:30;;;;;;;5.75;2.10;;;;;;;;;;7386823;19;20368;-76
2022/03/27 04:12:55;;;;;;;5.95;2.25;;;;;;;;;;7390103;19;20024;-75
2022/03/27 04:15:20;;;;;;;5.70;1.98;;;;;;;;;;7388959;19;19998;-76
2022/03/27 04:17:48;;;;;;;5.25;2.15;;;;;;;;;;7389676;19;20015;-76
2022/03/27 04:20:14;;;;;;;4.47;1.70;;;;;;;;;;7386840;19;20007;-76
2022/03/27 04:22:43;;;;;;;4.85;1.92;;;;;;;;;;7390563;19;20002;-76
2022/03/27 04:25:12;;;;;;;4.03;1.90;;;;;;;;;;7387216;19;20023;-76
2022/03/27 04:27:38;;;;;;;3.80;1.40;;;;;;;;;;7389632;19;20003;-76
2022/03/27 04:30:08;;;;;;;4.72;2.00;;;;;;;;;;7388290;19;20021;-77
2022/03/27 04:32:34;;;;;;;6.82;2.15;;;;;;;;;;7391592;19;20006;-75
2022/03/27 04:34:59;;;;;;;5.28;2.03;;;;;;;;;;7388634;19;19999;-75
2022/03/27 04:37:24;;;;;;;6.28;1.83;;;;;;;;;;7386806;19;20007;-76
2022/03/27 04:39:49;;;;;;;4.45;1.88;;;;;;;;;;7387453;19;20018;-75
2022/03/27 04:42:15;;;;;;;6.55;2.13;;;;;;;;;;7389405;19;20327;-76
2022/03/27 04:44:40;;;;;;;5.00;2.25;;;;;;;;;;7390111;19;20476;-77
2022/03/27 04:47:06;;;;;;;6.35;1.85;;;;;;;;;;7390913;19;20018;-77
2022/03/27 04:49:32;;;;;;;6.45;2.50;;;;;;;;;;7387091;19;20384;-77
2022/03/27 04:51:58;;;;;;;3.90;1.65;;;;;;;;;;7387831;19;20002;-79
2022/03/27 04:54:23;;;;;;;4.68;1.80;;;;;;;;;;7387562;19;20045;-78
2022/03/27 04:56:48;;;;;;;3.17;1.52;;;;;;;;;;7391012;19;20006;-78
2022/03/27 04:59:14;;;;;;;7.22;2.40;;;;;;;;;;7390227;19;20557;-77
2022/03/27 05:01:39;;;;;;;5.97;2.00;;;;;;;;;;7386749;19;20019;-77
2022/03/27 05:04:05;;;;;;;5.13;2.03;;;;;;;;;;7385780;19;20311;-77
2022/03/27 05:06:30;;;;;;;6.47;1.80;;;;;;;;;;7389435;19;20483;-79
2022/03/27 05:08:58;;;;;;;4.57;1.95;;;;;;;;;;7384150;19;20070;-76
2022/03/27 05:11:30;;;;;;;5.63;2.10;;;;;;;;;;7391740;19;20739;-78
2022/03/27 05:13:56;;;;;;;6.15;2.10;;;;;;;;;;7402964;19;20006;-77
2022/03/27 05:16:21;;;;;;;7.75;2.13;;;;;;;;;;7399945;19;20054;-80
2022/03/27 05:18:48;;;;;;;5.30;1.85;;;;;;;;;;7403210;19;20006;-78
2022/03/27 05:21:13;;;;;;;3.85;1.65;;;;;;;;;;7399312;19;20057;-78
2022/03/27 05:23:38;;;;;;;6.10;1.73;;;;;;;;;;7396019;19;20006;-79
2022/03/27 05:26:04;;;;;;;5.43;1.67;;;;;;;;;;7404033;19;20335;-78
2022/03/27 05:28:30;;;;;;;5.57;2.30;;;;;;;;;;7401384;19;20021;-78
2022/03/27 05:30:56;;;;;;;5.35;2.30;;;;;;;;;;7401778;19;20604;-77
2022/03/27 05:33:22;;;;;;;5.13;2.30;;;;;;;;;;7403213;19;20015;-78
2022/03/27 05:35:49;;;;;;;5.80;2.17;;;;;;;;;;7401537;19;19998;-77
2022/03/27 05:38:14;;;;;;;4.78;1.92;;;;;;;;;;7388896;19;20011;-76
2022/03/27 05:40:40;;;;;;;6.75;2.55;;;;;;;;;;7385643;19;20002;-76
2022/03/27 05:43:06;;;;;;;6.75;2.10;;;;;;;;;;7385424;19;20481;-76
2022/03/27 05:45:32;;;;;;;7.53;2.88;;;;;;;;;;7386000;19;20013;-76
2022/03/27 05:47:57;;;;;;;5.03;2.17;;;;;;;;;;7385998;19;20143;-77
2022/03/27 05:50:23;;;;;;;4.57;2.03;;;;;;;;;;7383788;19;20581;-78
2022/03/27 05:52:50;;;;;;;7.18;2.38;;;;;;;;;;7386194;19;20021;-75
2022/03/27 05:55:16;;;;;;;4.55;2.20;;;;;;;;;;7387437;19;20007;-75
2022/03/27 05:57:42;;;;;;;5.53;1.92;;;;;;;;;;7385405;19;20014;-76
2022/03/27 06:00:12;;;;;;;5.75;1.90;;;;;;;;;;7384890;19;19991;-76
2022/03/27 06:02:38;;;;;;;3.88;1.80;;;;;;;;;;7385821;19;20014;-78
2022/03/27 06:05:04;;;;;;;6.63;2.53;;;;;;;;;;7392826;19;20474;-78
2022/03/27 06:07:29;;;;;;;3.95;1.80;;;;;;;;;;7392978;19;20010;-77
2022/03/27 06:09:54;;;;;;;5.97;1.98;;;;;;;;;;7393249;19;20046;-78
2022/03/27 06:12:20;;;;;;;7.30;1.88;;;;;;;;;;7392620;19;20019;-78
2022/03/27 06:14:45;;;;;;;6.25;1.80;;;;;;;;;;7393800;19;20495;-78
2022/03/27 06:17:10;;;;;;;9.70;2.50;;;;;;;;;;7390222;19;20019;-77
2022/03/27 06:19:35;;;;;;;8.77;3.00;;;;;;;;;;7393849;19;20442;-78
2022/03/27 06:22:01;;;;;;;5.22;2.67;;;;;;;;;;7393667;19;20014;-77
2022/03/27 06:24:26;;;;;;;12.82;3.13;;;;;;;;;;7392769;19;20006;-78
2022/03/27 06:26:52;;;;;;;6.13;2.53;;;;;;;;;;7394874;19;19999;-78
2022/03/27 06:29:20;;;;;;;6.35;2.38;;;;;;;;;;7388196;19;20010;-77
2022/03/27 06:31:46;;;;;;;7.90;2.50;;;;;;;;;;7391001;19;20470;-76
2022/03/27 06:34:12;;;;;;;5.53;2.38;;;;;;;;;;7392948;19;20002;-78
2022/03/27 06:36:37;;;;;;;4.97;2.30;;;;;;;;;;7393557;19;20003;-76
2022/03/27 06:39:04;;;;;;;6.97;2.55;;;;;;;;;;7392727;19;20017;-80
2022/03/27 06:41:30;;;;;;;4.15;2.00;;;;;;;;;;7391389;19;20479;-76
2022/03/27 06:43:55;;;;;;;5.13;2.28;;;;;;;;;;7391616;19;20010;-79
2022/03/27 06:46:20;;;;;;;5.75;2.28;;;;;;;;;;7393736;19;20011;-77
2022/03/27 06:48:48;;;;;;;6.28;2.55;;;;;;;;;;7388317;19;20003;-76
2022/03/27 06:51:13;;;;;;;5.28;2.58;;;;;;;;;;7392934;19;20018;-78
2022/03/27 06:53:40;;;;;;;5.20;2.42;;;;;;;;;;7390530;19;19998;-76
2022/03/27 06:56:05;;;;;;;5.60;2.85;;;;;;;;;;7389876;19;20356;-76
2022/03/27 06:58:33;;;;;;;7.50;3.13;;;;;;;;;;7390245;19;20006;-76
2022/03/27 07:03:43;;;;;;;5.85;3.03;;;;;;;;;;7391445;19;20798;-77
2022/03/27 07:06:10;;;;;;;5.82;2.90;;;;;;;;;;7392455;19;20018;-78
2022/03/27 07:08:36;;;;;;;6.00;2.63;;;;;;;;;;7392295;19;20006;-77
2022/03/27 07:11:03;;;;;;;7.40;3.75;;;;;;;;;;7389839;19;20006;-78
2022/03/27 07:13:28;;;;;;;10.30;3.40;;;;;;;;;;7390368;19;20002;-78
2022/03/27 07:15:54;;;;;;;8.68;3.55;;;;;;;;;;7391367;19;20131;-78
2022/03/27 07:18:20;;;;;;;8.00;3.47;;;;;;;;;;7391171;19;20010;-78
2022/03/27 07:20:46;;;;;;;10.38;4.18;;;;;;;;;;7390812;19;20018;-78
2022/03/27 07:23:14;;;;;;;10.32;3.65;;;;;;;;;;7390959;19;20002;-78
2022/03/27 07:25:42;;;;;;;6.53;3.72;;;;;;;;;;7392067;19;20014;-78
2022/03/27 07:28:09;;;;;;;8.20;4.20;;;;;;;;;;7388127;19;20018;-78
2022/03/27 07:30:35;;;;;;;8.85;4.03;;;;;;;;;;7386726;19;20014;-77
2022/03/27 07:33:01;;;;;;;7.75;3.53;;;;;;;;;;7392653;19;20014;-78
2022/03/27 07:35:30;;;;;;;11.88;5.15;;;;;;;;;;7390028;19;20006;-77
2022/03/27 07:37:55;;;;;;;10.23;4.50;;;;;;;;;;7393454;19;20068;-78
2022/03/27 07:40:21;;;;;;;11.27;4.28;;;;;;;;;;7389505;19;20010;-77
2022/03/27 07:42:49;;;;;;;12.43;4.65;;;;;;;;;;7390582;19;20006;-77
2022/03/27 07:45:18;;;;;;;10.82;4.68;;;;;;;;;;7390927;19;20023;-77
2022/03/27 07:47:44;;;;;;;15.00;5.28;;;;;;;;;;7387634;19;20029;-77
2022/03/27 07:50:11;;;;;;;16.25;5.38;;;;;;;;;;7392979;19;20011;-78
2022/03/27 07:52:37;;;;;;;13.10;6.13;;;;;;;;;;7396474;19;20027;-78
2022/03/27 07:55:03;;;;;;;9.27;5.35;;;;;;;;;;7395460;19;20006;-77
2022/03/27 07:57:29;;;;;;;13.45;5.20;;;;;;;;;;7389643;19;20123;-78
2022/03/27 07:59:54;;;;;;;13.27;5.50;;;;;;;;;;7392207;19;20026;-78
2022/03/27 08:02:21;;;;;;;19.17;5.38;;;;;;;;;;7392195;19;19999;-78
2022/03/27 08:04:47;;;;;;;15.27;6.15;;;;;;;;;;7395674;19;20003;-78
2022/03/27 08:07:12;;;;;;;13.82;6.25;;;;;;;;;;7396613;19;20046;-77
2022/03/27 08:09:37;;;;;;;13.60;7.10;;;;;;;;;;7394550;19;20032;-76
2022/03/27 08:12:03;;;;;;;15.30;6.22;;;;;;;;;;7393886;19;20030;-79
2022/03/27 08:14:31;;;;;;;23.50;6.43;;;;;;;;;;7396120;19;20010;-78
2022/03/27 08:16:58;;;;;;;16.83;6.70;;;;;;;;;;7395798;19;20010;-79
2022/03/27 08:19:24;;;;;;;16.35;6.72;;;;;;;;;;7394941;19;20038;-77
2022/03/27 08:21:49;;;;;;;17.05;7.03;;;;;;;;;;7393905;19;20643;-80
2022/03/27 08:24:14;;;;;;;18.98;7.70;;;;;;;;;;7396538;19;20014;-79
2022/03/27 08:29:29;;;;;;;16.75;8.00;;;;;;;;;;7394299;19;20034;-79
2022/03/27 08:31:55;;;;;;;19.90;7.45;;;;;;;;;;7394255;19;20007;-77
2022/03/27 08:34:23;;;;;;;15.50;7.43;;;;;;;;;;7396338;19;20110;-79
2022/03/27 08:36:49;;;;;;;18.52;7.93;;;;;;;;;;7391630;19;20014;-77
2022/03/27 08:39:15;;;;;;;17.00;7.40;;;;;;;;;;7386432;19;20006;-79
2022/03/27 08:41:45;;;;;;;23.42;8.00;;;;;;;;;;7394691;19;20068;-78
2022/03/27 08:44:12;;;;;;;17.83;7.38;;;;;;;;;;7396051;19;20021;-79
2022/03/27 08:46:40;;;;;;;19.02;8.50;;;;;;;;;;7398336;19;20025;-79
2022/03/27 08:49:17;;;;;;;42.55;17.13;;;;;;;;;;7395067;19;20081;-79
2022/03/27 08:52:08;;;;;;;23.27;10.20;;;;;;;;;;7399180;19;20087;-77
2022/03/27 08:54:42;;;;;;;24.30;10.02;;;;;;;;;;7397011;19;20513;-78
2022/03/27 08:57:22;;;;;;;17.85;8.60;;;;;;;;;;7391593;19;20006;-79
2022/03/27 08:59:52;;;;;;;72.25;24.52;;;;;;;;;;7393601;19;20389;-78
2022/03/27 09:02:19;;;;;;;25.08;10.35;;;;;;;;;;7394539;19;20006;-79
2022/03/27 09:04:44;;;;;;;31.17;12.05;;;;;;;;;;7395380;19;20003;-79
2022/03/27 09:07:10;;;;;;;48.13;22.02;;;;;;;;;;7393519;19;20031;-81
2022/03/27 09:09:36;;;;;;;26.40;11.95;;;;;;;;;;7387733;19;20014;-78
2022/03/27 09:12:05;;;;;;;21.00;10.40;;;;;;;;;;7390031;19;20008;-78
2022/03/27 09:14:32;;;;;;;23.10;8.90;;;;;;;;;;7363002;19;20031;-76
2022/03/27 09:17:05;;;;;;;18.38;8.20;;;;;;;;;;7391806;19;20119;-77
2022/03/27 09:19:43;;;;;;;19.23;8.40;;;;;;;;;;7356034;19;20044;-77
2022/03/27 09:22:16;;;;;;;21.02;10.05;;;;;;;;;;7391194;19;20395;-78
2022/03/27 09:24:46;;;;;;;18.65;8.48;;;;;;;;;;7387075;19;19998;-76
2022/03/27 09:27:11;;;;;;;19.90;8.57;;;;;;;;;;7387174;19;20463;-78
2022/03/27 09:30:00;;;;;;;17.33;8.75;;;;;;;;;;7295943;19;20110;-75
2022/03/27 09:32:35;;;;;;;24.40;8.85;;;;;;;;;;7391375;19;20015;-78
2022/03/27 09:35:02;;;;;;;22.02;8.18;;;;;;;;;;7394546;19;20437;-82
2022/03/27 09:37:32;;;;;;;18.30;8.82;;;;;;;;;;7392243;19;20007;-80
2022/03/27 09:39:58;;;;;;;20.13;9.48;;;;;;;;;;7394727;19;20047;-79
2022/03/27 09:42:24;;;;;;;18.23;8.88;;;;;;;;;;7399734;19;20002;-79
2022/03/27 09:45:14;;;;;;;18.95;8.40;;;;;;;;;;7397959;19;19995;-80
2022/03/27 09:47:50;;;;;;;16.50;8.27;;;;;;;;;;7401519;19;20019;-78
2022/03/27 09:50:39;;;;;;;19.35;9.00;;;;;;;;;;7397897;19;20025;-80
2022/03/27 09:53:30;;;;;;;16.60;8.45;;;;;;;;;;7404397;19;20031;-78
2022/03/27 09:55:59;;;;;;;19.60;9.50;;;;;;;;;;7410142;19;20017;-78
2022/03/27 09:58:39;;;;;;;20.23;8.23;;;;;;;;;;7403114;19;20077;-79
2022/03/27 10:01:16;;;;;;;23.05;9.27;;;;;;;;;;7397194;19;20454;-79
2022/03/27 10:03:59;;;;;;;20.75;9.75;;;;;;;;;;7398695;19;20002;-78
2022/03/27 10:06:32;;;;;;;20.65;9.10;;;;;;;;;;7400025;19;20023;-78
2022/03/27 10:08:59;;;;;;;17.52;8.63;;;;;;;;;;7395981;19;20654;-79
2022/03/27 10:11:25;;;;;;;23.77;9.32;;;;;;;;;;7399439;19;20039;-79
2022/03/27 10:13:54;;;;;;;21.55;9.75;;;;;;;;;;7307567;19;20006;-80
2022/03/27 10:16:24;;;;;;;18.52;8.27;;;;;;;;;;7401936;19;20015;-79
2022/03/27 10:18:53;;;;;;;20.15;8.60;;;;;;;;;;7401660;19;20027;-79
2022/03/27 10:21:21;;;;;;;15.73;8.98;;;;;;;;;;7401419;19;20011;-80
2022/03/27 10:23:48;;;;;;;19.75;8.93;;;;;;;;;;7401308;19;20014;-80
2022/03/27 10:26:14;;;;;;;22.38;8.95;;;;;;;;;;7398737;19;20335;-79
2022/03/27 10:28:39;;;;;;;21.00;9.27;;;;;;;;;;7361583;19;20014;-79
2022/03/27 10:31:06;;;;;;;21.95;9.20;;;;;;;;;;7397640;19;20007;-80
2022/03/27 10:33:33;;;;;;;21.08;10.13;;;;;;;;;;7398222;19;20022;-79
2022/03/27 10:36:12;;;;;;;22.45;10.95;;;;;;;;;;7399525;19;20017;-80
2022/03/27 10:39:08;;;;;;;19.42;9.65;;;;;;;;;;7398132;19;20010;-79
2022/03/27 10:41:36;;;;;;;;;;;;;;;;;;7396973;19;20355;-78
2022/03/27 10:44:24;;;;;;;18.25;9.02;;;;;;;;;;7398819;19;20314;-78
2022/03/27 10:47:13;;;;;;;22.23;9.70;;;;;;;;;;7400006;19;20011;-79
2022/03/27 10:49:38;;;;;;;20.38;9.18;;;;;;;;;;7396138;19;20021;-80
2022/03/27 10:52:05;;;;;;;19.05;9.30;;;;;;;;;;7397266;19;19998;-79
2022/03/27 10:54:30;;;;;;;20.05;9.35;;;;;;;;;;7402022;19;20044;-79
2022/03/27 10:56:56;;;;;;;23.65;9.70;;;;;;;;;;7398171;19;20007;-78
2022/03/27 10:59:24;;;;;;;18.63;9.55;;;;;;;;;;7394974;19;20022;-77
2022/03/27 11:01:51;;;;;;;21.40;9.45;;;;;;;;;;7398295;19;20027;-77
2022/03/27 11:04:36;;;;;;;22.25;10.05;;;;;;;;;;7398634;19;20012;-78
2022/03/27 11:07:16;;;;;;;21.60;9.13;;;;;;;;;;7399267;19;20011;-78
2022/03/27 11:09:47;;;;;;;20.88;9.63;;;;;;;;;;7395526;19;20026;-78
2022/03/27 11:12:24;;;;;;;15.38;7.55;;;;;;;;;;7395031;19;20569;-78
2022/03/27 11:14:52;;;;;;;16.15;9.20;;;;;;;;;;7400959;19;20014;-79
2022/03/27 11:17:30;;;;;;;21.20;9.30;;;;;;;;;;7399151;19;20018;-77
2022/03/27 11:19:55;;;;;;;18.38;8.60;;;;;;;;;;7394580;19;20023;-76
2022/03/27 11:22:52;;;;;;;18.70;9.25;;;;;;;;;;7391875;19;20327;-74
2022/03/27 11:25:38;;;;;;;19.77;9.25;;;;;;;;;;7394938;19;20002;-77
2022/03/27 11:28:06;;;;;;;19.35;9.23;;;;;;;;;;7401282;19;20021;-76
2022/03/27 11:30:56;;;;;;;19.00;9.02;;;;;;;;;;7396364;19;20027;-77
2022/03/27 11:33:29;;;;;;;21.50;9.07;;;;;;;;;;7406455;19;20006;-77
2022/03/27 11:36:09;;;;;;;19.35;8.35;;;;;;;;;;7401466;19;20003;-76
2022/03/27 11:39:02;;;;;;;15.32;8.93;;;;;;;;;;7398219;19;20005;-77
2022/03/27 11:41:44;;;;;;;15.93;8.43;;;;;;;;;;7394809;19;20002;-78
2022/03/27 11:47:20;;;;;;;15.73;7.30;;;;;;;;;;7416696;19;20533;-77
2022/03/27 11:49:48;;;;;;;16.30;8.32;;;;;;;;;;7404047;19;20027;-76
2022/03/27 11:52:16;;;;;;;14.18;7.35;;;;;;;;;;7402477;19;20025;-77
2022/03/27 11:54:41;;;;;;;17.40;8.48;;;;;;;;;;7401033;19;20136;-78
2022/03/27 11:57:08;;;;;;;17.52;8.90;;;;;;;;;;7394711;19;20382;-77
2022/03/27 12:00:00;;;;;;;21.35;8.48;;;;;;;;;;7395448;19;20011;-77
2022/03/27 12:06:02;;;;;;;14.93;7.75;;;;;;;;;;7406903;19;20021;-81
2022/03/27 12:08:56;;;;;;;21.63;7.43;;;;;;;;;;7390861;19;20478;-81
2022/03/27 12:11:26;;;;;;;13.18;7.07;;;;;;;;;;7391488;19;20007;-82
2022/03/27 12:17:44;;;;;;;18.20;8.50;;;;;;;;;;7390436;19;20002;-83
2022/03/27 12:20:11;;;;;;;17.52;7.75;;;;;;;;;;7393119;19;20130;-78
2022/03/27 12:22:41;;;;;;;17.50;7.57;;;;;;;;;;7396717;19;20013;-79
2022/03/27 12:25:22;;;;;;;17.98;8.57;;;;;;;;;;7392894;19;20011;-81
2022/03/27 12:30:44;;;;;;;19.23;8.93;;;;;;;;;;7392151;19;20458;-79
2022/03/27 12:33:10;;;;;;;18.05;9.05;;;;;;;;;;7390827;19;20088;-80
2022/03/27 12:35:35;;;;;;;18.13;8.18;;;;;;;;;;7392295;19;20010;-78
2022/03/27 12:38:01;;;;;;;14.45;7.13;;;;;;;;;;7393799;19;20030;-80
2022/03/27 12:40:27;;;;;;;20.15;7.70;;;;;;;;;;7389538;19;20081;-80
2022/03/27 12:42:54;;;;;;;13.88;6.57;;;;;;;;;;7392946;19;20010;-81
2022/03/27 12:45:26;;;;;;;16.88;6.88;;;;;;;;;;7392258;19;20010;-78
2022/03/27 12:47:52;;;;;;;13.00;6.68;;;;;;;;;;7292426;19;20010;-82
2022/03/27 12:50:38;;;;;;;17.58;7.50;;;;;;;;;;7390680;19;19999;-80
2022/03/27 12:53:12;;;;;;;14.55;6.93;;;;;;;;;;7394814;19;20031;-81
2022/03/27 12:55:51;;;;;;;12.60;5.97;;;;;;;;;;7394472;19;20066;-80
2022/03/27 12:58:21;;;;;;;11.15;6.07;;;;;;;;;;7388714;19;20015;-80
2022/03/27 13:01:06;;;;;;;13.93;6.55;;;;;;;;;;7397836;19;20295;-79
2022/03/27 13:03:34;;;;;;;13.32;6.72;;;;;;;;;;7393399;19;20011;-80
2022/03/27 13:06:02;;;;;;;11.70;6.05;;;;;;;;;;7394928;19;20003;-79
2022/03/27 13:08:35;;;;;;;9.45;5.95;;;;;;;;;;7391704;19;20019;-80
2022/03/27 13:11:06;;;;;;;12.18;6.18;;;;;;;;;;7389274;19;20042;-80
2022/03/27 13:13:37;;;;;;;10.57;5.85;;;;;;;;;;7393572;19;20030;-79
2022/03/27 13:16:20;;;;;;;12.25;6.05;;;;;;;;;;7399611;19;20019;-78
2022/03/27 13:19:00;;;;;;;12.13;5.75;;;;;;;;;;7307651;19;20676;-78
2022/03/27 13:21:27;;;;;;;13.82;6.68;;;;;;;;;;7397950;19;20438;-79
2022/03/27 13:23:52;;;;;;;11.38;6.22;;;;;;;;;;7312637;19;20046;-79
2022/03/27 13:26:18;;;;;;;15.13;6.65;;;;;;;;;;7398817;19;20006;-80
2022/03/27 13:28:43;;;;;;;10.38;5.82;;;;;;;;;;7397267;19;20039;-77
2022/03/27 13:31:11;;;;;;;12.85;5.70;;;;;;;;;;7400139;19;20034;-78
2022/03/27 13:33:36;;;;;;;15.75;5.45;;;;;;;;;;7396655;19;20018;-79
2022/03/27 13:36:02;;;;;;;10.30;5.55;;;;;;;;;;7399512;19;20009;-79
2022/03/27 13:38:27;;;;;;;11.88;5.07;;;;;;;;;;7392722;19;20434;-78
2022/03/27 13:43:36;;;;;;;9.00;5.63;;;;;;;;;;7395745;19;20037;-80
2022/03/27 13:46:01;;;;;;;9.20;5.18;;;;;;;;;;7396321;19;20055;-80
2022/03/27 13:48:27;;;;;;;9.10;5.68;;;;;;;;;;7395342;19;20011;-81
2022/03/27 13:50:53;;;;;;;9.73;5.35;;;;;;;;;;7397617;19;20019;-80
2022/03/27 13:53:18;;;;;;;8.35;4.80;;;;;;;;;;7398676;19;20011;-80
2022/03/27 13:55:43;;;;;;;13.75;5.15;;;;;;;;;;7403316;19;20007;-80
2022/03/27 13:58:09;;;;;;;7.85;4.90;;;;;;;;;;7404556;19;20006;-80
2022/03/27 14:00:34;;;;;;;12.20;5.20;;;;;;;;;;7395849;19;20006;-79
2022/03/27 14:03:00;;;;;;;12.43;5.90;;;;;;;;;;7393521;19;20010;-80
2022/03/27 14:05:25;;;;;;;8.82;5.63;;;;;;;;;;7389612;19;20466;-80
2022/03/27 14:07:50;;;;;;;9.40;5.50;;;;;;;;;;7391599;19;20006;-79
2022/03/27 14:10:16;;;;;;;17.73;10.50;;;;;;;;;;7397204;19;20026;-81
2022/03/27 14:12:41;;;;;;;11.15;6.90;;;;;;;;;;7395063;19;20007;-80
2022/03/27 14:15:07;;;;;;;13.40;6.00;;;;;;;;;;7364283;19;20209;-80
2022/03/27 14:17:33;;;;;;;29.00;16.65;;;;;;;;;;7396287;19;20318;-81
2022/03/27 14:19:58;;;;;;;16.33;9.52;;;;;;;;;;7395273;19;20478;-81
2022/03/27 14:22:23;;;;;;;11.32;6.55;;;;;;;;;;7395453;19;20003;-80
2022/03/27 14:24:49;;;;;;;11.55;6.03;;;;;;;;;;7395181;19;20035;-80
2022/03/27 14:27:16;;;;;;;11.85;7.35;;;;;;;;;;7394436;19;20006;-80
2022/03/27 14:29:42;;;;;;;13.73;6.35;;;;;;;;;;7309586;19;20042;-80
2022/03/27 14:32:09;;;;;;;11.02;6.03;;;;;;;;;;7397772;19;20307;-78
2022/03/27 14:34:34;;;;;;;13.18;5.93;;;;;;;;;;7397961;19;20027;-79
2022/03/27 14:36:59;;;;;;;7.95;5.03;;;;;;;;;;7393166;19;20462;-78
2022/03/27 14:39:25;;;;;;;8.80;5.18;;;;;;;;;;7394919;19;20036;-79
2022/03/27 14:41:50;;;;;;;13.50;5.18;;;;;;;;;;7395822;19;20010;-78
2022/03/27 14:44:15;;;;;;;8.45;5.50;;;;;;;;;;7394838;19;20485;-81
2022/03/27 14:46:41;;;;;;;11.48;5.75;;;;;;;;;;7395938;19;20000;-82
2022/03/27 14:49:07;;;;;;;11.57;5.57;;;;;;;;;;7396793;19;20006;-79
2022/03/27 14:51:32;;;;;;;8.55;5.00;;;;;;;;;;7397019;19;20010;-80
2022/03/27 14:56:42;;;;;;;12.88;5.25;;;;;;;;;;7307593;19;20047;-79
2022/03/27 14:59:07;;;;;;;9.20;4.78;;;;;;;;;;7398168;19;19990;-79
2022/03/27 15:01:32;;;;;;;11.45;6.10;;;;;;;;;;7399073;19;20029;-79
2022/03/27 15:03:58;;;;;;;14.25;5.32;;;;;;;;;;7396178;19;20079;-79
2022/03/27 15:06:24;;;;;;;10.70;5.15;;;;;;;;;;7422965;19;20026;-77
2022/03/27 15:08:51;;;;;;;7.43;4.75;;;;;;;;;;7421021;19;19987;-78
2022/03/27 15:11:18;;;;;;;9.95;4.68;;;;;;;;;;7421764;19;19999;-78